createdAt,value
2024-03-21T00:00:40.105Z,446.00
2024-03-21T00:01:40.161Z,447.00
2024-03-21T00:02:40.207Z,448.00
2024-03-21T00:03:40.267Z,445.00
2024-03-21T00:04:40.305Z,445.00
2024-03-21T00:05:40.354Z,445.00
2024-03-21T00:06:40.420Z,444.00
2024-03-21T00:07:40.453Z,442.00
2024-03-21T00:08:40.516Z,444.00
2024-03-21T00:09:40.550Z,444.00
2024-03-21T00:10:40.600Z,442.00
2024-03-21T00:11:40.646Z,444.00
2024-03-21T00:12:40.700Z,448.00
2024-03-21T00:13:40.757Z,448.00
2024-03-21T00:14:40.795Z,448.00
2024-03-21T00:15:40.842Z,448.00
2024-03-21T00:16:40.894Z,448.00
2024-03-21T00:17:40.946Z,449.00
2024-03-21T00:18:41.013Z,449.00
2024-03-21T00:19:41.048Z,447.00
2024-03-21T00:20:41.098Z,446.00
2024-03-21T00:21:41.268Z,448.00
2024-03-21T00:22:41.200Z,448.00
2024-03-21T00:23:41.263Z,451.00
2024-03-21T00:24:41.307Z,451.00
2024-03-21T00:25:41.369Z,452.00
2024-03-21T00:26:41.410Z,448.00
2024-03-21T00:27:41.465Z,446.00
2024-03-21T00:28:41.513Z,447.00
2024-03-21T00:29:41.562Z,448.00
2024-03-21T00:30:41.614Z,449.00
2024-03-21T00:31:41.662Z,452.00
2024-03-21T00:32:41.717Z,451.00
2024-03-21T00:33:41.791Z,451.00
2024-03-21T00:34:41.833Z,454.00
2024-03-21T00:35:41.877Z,457.00
2024-03-21T00:36:41.927Z,456.00
2024-03-21T00:37:41.978Z,454.00
2024-03-21T00:38:42.039Z,454.00
2024-03-21T00:39:42.092Z,454.00
2024-03-21T00:40:42.153Z,454.00
2024-03-21T00:41:42.206Z,457.00
2024-03-21T00:42:42.281Z,454.00
2024-03-21T00:43:42.339Z,455.00
2024-03-21T00:44:42.387Z,456.00
2024-03-21T00:45:42.452Z,457.00
2024-03-21T00:46:42.503Z,457.00
2024-03-21T00:47:42.562Z,458.00
2024-03-21T00:48:42.637Z,460.00
2024-03-21T00:49:42.674Z,460.00
2024-03-21T00:50:42.724Z,458.00
2024-03-21T00:51:42.777Z,456.00
2024-03-21T00:52:42.836Z,455.00
2024-03-21T00:53:42.908Z,455.00
2024-03-21T00:54:42.942Z,454.00
2024-03-21T00:55:42.996Z,454.00
2024-03-21T00:56:43.051Z,454.00
2024-03-21T00:57:43.118Z,455.00
2024-03-21T00:58:43.169Z,453.00
2024-03-21T00:59:43.206Z,454.00
2024-03-21T01:00:43.256Z,450.00
2024-03-21T01:01:43.333Z,449.00
2024-03-21T01:02:43.367Z,452.00
2024-03-21T01:03:43.432Z,451.00
2024-03-21T01:04:43.499Z,452.00
2024-03-21T01:05:43.523Z,454.00
2024-03-21T01:06:43.568Z,453.00
2024-03-21T01:07:43.624Z,452.00
2024-03-21T01:08:43.681Z,453.00
2024-03-21T01:09:43.726Z,454.00
2024-03-21T01:10:43.882Z,455.00
2024-03-21T01:11:43.831Z,454.00
2024-03-21T01:12:43.887Z,455.00
2024-03-21T01:13:43.952Z,457.00
2024-03-21T01:14:44.002Z,458.00
2024-03-21T01:15:44.047Z,459.00
2024-03-21T01:16:44.116Z,458.00
2024-03-21T01:17:44.169Z,456.00
2024-03-21T01:18:44.229Z,458.00
2024-03-21T01:19:44.325Z,457.00
2024-03-21T01:20:44.332Z,457.00
2024-03-21T01:21:44.391Z,457.00
2024-03-21T01:22:44.480Z,459.00
2024-03-21T01:23:44.499Z,455.00
2024-03-21T01:24:44.546Z,454.00
2024-03-21T01:25:44.624Z,452.00
2024-03-21T01:26:44.654Z,451.00
2024-03-21T01:27:44.711Z,455.00
2024-03-21T01:28:44.786Z,458.00
2024-03-21T01:29:44.830Z,457.00
2024-03-21T01:30:44.880Z,456.00
2024-03-21T01:31:44.964Z,454.00
2024-03-21T01:32:44.995Z,456.00
2024-03-21T01:33:45.052Z,455.00
2024-03-21T01:34:45.109Z,458.00
2024-03-21T01:35:45.154Z,459.00
2024-03-21T01:36:45.213Z,459.00
2024-03-21T01:37:45.277Z,457.00
2024-03-21T01:38:45.326Z,454.00
2024-03-21T01:39:45.375Z,452.00
2024-03-21T01:40:45.436Z,452.00
2024-03-21T01:41:45.477Z,455.00
2024-03-21T01:42:45.532Z,456.00
2024-03-21T01:43:45.621Z,454.00
2024-03-21T01:44:45.637Z,454.00
2024-03-21T01:45:45.697Z,454.00
2024-03-21T01:46:45.795Z,452.00
2024-03-21T01:47:45.826Z,453.00
2024-03-21T01:48:45.877Z,455.00
2024-03-21T01:49:45.912Z,454.00
2024-03-21T01:50:45.966Z,453.00
2024-03-21T01:51:46.036Z,454.00
2024-03-21T01:52:46.076Z,454.00
2024-03-21T01:53:46.132Z,458.00
2024-03-21T01:54:46.188Z,456.00
2024-03-21T01:55:46.288Z,457.00
2024-03-21T01:56:46.296Z,458.00
2024-03-21T01:57:46.342Z,456.00
2024-03-21T01:58:46.437Z,455.00
2024-03-21T01:59:46.468Z,453.00
2024-03-21T02:00:46.522Z,453.00
2024-03-21T02:01:46.597Z,450.00
2024-03-21T02:02:46.640Z,450.00
2024-03-21T02:03:46.702Z,450.00
2024-03-21T02:04:46.767Z,450.00
2024-03-21T02:05:46.804Z,452.00
2024-03-21T02:06:46.907Z,453.00
2024-03-21T02:07:46.970Z,453.00
2024-03-21T02:08:46.996Z,453.00
2024-03-21T02:09:47.043Z,452.00
2024-03-21T02:10:47.118Z,451.00
2024-03-21T02:11:47.160Z,452.00
2024-03-21T02:12:47.213Z,451.00
2024-03-21T02:13:47.299Z,451.00
2024-03-21T02:14:47.344Z,451.00
2024-03-21T02:15:47.412Z,454.00
2024-03-21T02:16:47.513Z,454.00
2024-03-21T02:17:47.520Z,453.00
2024-03-21T02:18:47.593Z,453.00
2024-03-21T02:19:47.640Z,452.00
2024-03-21T02:20:47.701Z,449.00
2024-03-21T02:21:47.759Z,449.00
2024-03-21T02:22:47.823Z,447.00
2024-03-21T02:23:47.880Z,448.00
2024-03-21T02:24:47.964Z,448.00
2024-03-21T02:25:48.005Z,450.00
2024-03-21T02:26:48.069Z,449.00
2024-03-21T02:27:48.135Z,447.00
2024-03-21T02:28:48.194Z,445.00
2024-03-21T02:29:48.250Z,447.00
2024-03-21T02:30:48.318Z,450.00
2024-03-21T02:31:48.395Z,450.00
2024-03-21T02:32:48.432Z,448.00
2024-03-21T02:33:48.501Z,446.00
2024-03-21T02:34:48.555Z,444.00
2024-03-21T02:35:48.617Z,444.00
2024-03-21T02:36:48.684Z,443.00
2024-03-21T02:37:48.761Z,444.00
2024-03-21T02:38:48.789Z,447.00
2024-03-21T02:39:48.843Z,449.00
2024-03-21T02:40:48.914Z,450.00
2024-03-21T02:41:48.961Z,450.00
2024-03-21T02:42:49.015Z,450.00
2024-03-21T02:43:49.084Z,449.00
2024-03-21T02:44:49.149Z,448.00
2024-03-21T02:45:49.209Z,450.00
2024-03-21T02:46:49.260Z,450.00
2024-03-21T02:47:49.339Z,451.00
2024-03-21T02:48:49.408Z,453.00
2024-03-21T02:49:49.434Z,454.00
2024-03-21T02:50:49.500Z,455.00
2024-03-21T02:51:49.551Z,455.00
2024-03-21T02:52:49.642Z,454.00
2024-03-21T02:53:49.671Z,456.00
2024-03-21T02:54:49.704Z,455.00
2024-03-21T02:55:49.808Z,455.00
2024-03-21T02:56:49.820Z,461.00
2024-03-21T02:57:49.875Z,463.00
2024-03-21T02:58:49.935Z,464.00
2024-03-21T02:59:49.996Z,465.00
2024-03-21T03:00:50.075Z,464.00
2024-03-21T03:01:50.115Z,464.00
2024-03-21T03:02:50.162Z,463.00
2024-03-21T03:03:50.225Z,463.00
2024-03-21T03:04:50.272Z,463.00
2024-03-21T03:05:50.328Z,463.00
2024-03-21T03:06:50.414Z,461.00
2024-03-21T03:07:50.449Z,460.00
2024-03-21T03:08:50.511Z,458.00
2024-03-21T03:09:50.570Z,453.00
2024-03-21T03:10:50.677Z,453.00
2024-03-21T03:11:50.686Z,455.00
2024-03-21T03:12:50.752Z,457.00
2024-03-21T03:13:50.810Z,460.00
2024-03-21T03:14:50.870Z,460.00
2024-03-21T03:15:50.922Z,464.00
2024-03-21T03:16:50.998Z,465.00
2024-03-21T03:17:51.051Z,463.00
2024-03-21T03:18:51.113Z,461.00
2024-03-21T03:19:51.177Z,462.00
2024-03-21T03:20:51.214Z,462.00
2024-03-21T03:21:51.271Z,464.00
2024-03-21T03:22:51.343Z,463.00
2024-03-21T03:23:51.395Z,462.00
2024-03-21T03:24:51.446Z,461.00
2024-03-21T03:25:51.519Z,461.00
2024-03-21T03:26:51.557Z,459.00
2024-03-21T03:27:51.616Z,461.00
2024-03-21T03:28:51.710Z,461.00
2024-03-21T03:29:51.736Z,462.00
2024-03-21T03:30:51.776Z,462.00
2024-03-21T03:31:51.853Z,465.00
2024-03-21T03:32:51.909Z,463.00
2024-03-21T03:33:51.966Z,460.00
2024-03-21T03:34:52.046Z,461.00
2024-03-21T03:35:52.091Z,461.00
2024-03-21T03:36:52.149Z,460.00
2024-03-21T03:37:52.201Z,458.00
2024-03-21T03:38:52.259Z,459.00
2024-03-21T03:39:52.322Z,458.00
2024-03-21T03:40:52.372Z,458.00
2024-03-21T03:41:52.421Z,458.00
2024-03-21T03:42:52.481Z,459.00
2024-03-21T03:43:52.540Z,458.00
2024-03-21T03:44:52.616Z,459.00
2024-03-21T03:45:52.668Z,459.00
2024-03-21T03:46:52.742Z,460.00
2024-03-21T03:47:52.786Z,462.00
2024-03-21T03:48:52.842Z,463.00
2024-03-21T03:49:52.967Z,460.00
2024-03-21T03:50:52.959Z,458.00
2024-03-21T03:51:53.027Z,456.00
2024-03-21T03:52:53.115Z,456.00
2024-03-21T03:53:53.140Z,456.00
2024-03-21T03:54:53.201Z,458.00
2024-03-21T03:55:53.260Z,457.00
2024-03-21T03:56:53.327Z,459.00
2024-03-21T03:57:53.385Z,460.00
2024-03-21T03:58:53.466Z,460.00
2024-03-21T03:59:54.460Z,462.00
2024-03-21T04:00:53.565Z,462.00
2024-03-21T04:01:53.660Z,460.00
2024-03-21T04:02:53.676Z,459.00
2024-03-21T04:03:53.747Z,459.00
2024-03-21T04:04:53.850Z,457.00
2024-03-21T04:05:53.854Z,457.00
2024-03-21T04:06:53.922Z,458.00
2024-03-21T04:07:54.056Z,457.00
2024-03-21T04:08:54.067Z,456.00
2024-03-21T04:09:54.101Z,459.00
2024-03-21T04:10:54.197Z,463.00
2024-03-21T04:11:54.215Z,467.00
2024-03-21T04:12:54.273Z,464.00
2024-03-21T04:13:54.346Z,461.00
2024-03-21T04:14:54.410Z,463.00
2024-03-21T04:15:54.454Z,461.00
2024-03-21T04:16:54.525Z,466.00
2024-03-21T04:17:54.582Z,467.00
2024-03-21T04:18:54.644Z,470.00
2024-03-21T04:19:54.726Z,467.00
2024-03-21T04:20:54.770Z,467.00
2024-03-21T04:21:54.822Z,468.00
2024-03-21T04:22:54.903Z,467.00
2024-03-21T04:23:54.954Z,467.00
2024-03-21T04:24:55.020Z,466.00
2024-03-21T04:25:55.117Z,464.00
2024-03-21T04:26:55.132Z,463.00
2024-03-21T04:27:55.188Z,463.00
2024-03-21T04:28:55.270Z,464.00
2024-03-21T04:29:55.325Z,464.00
2024-03-21T04:30:55.377Z,463.00
2024-03-21T04:31:55.462Z,461.00
2024-03-21T04:32:55.495Z,461.00
2024-03-21T04:33:55.551Z,460.00
2024-03-21T04:34:55.686Z,460.00
2024-03-21T04:35:55.679Z,460.00
2024-03-21T04:36:55.748Z,458.00
2024-03-21T04:37:55.829Z,459.00
2024-03-21T04:38:55.849Z,459.00
2024-03-21T04:39:55.982Z,460.00
2024-03-21T04:40:56.021Z,460.00
2024-03-21T04:41:56.055Z,461.00
2024-03-21T04:42:56.112Z,462.00
2024-03-21T04:43:56.210Z,462.00
2024-03-21T04:44:56.225Z,463.00
2024-03-21T04:45:56.287Z,464.00
2024-03-21T04:46:56.373Z,466.00
2024-03-21T04:47:57.968Z,467.00
2024-03-21T04:48:56.467Z,470.00
2024-03-21T04:49:56.565Z,471.00
2024-03-21T04:50:56.585Z,469.00
2024-03-21T04:51:56.635Z,468.00
2024-03-21T04:52:56.716Z,471.00
2024-03-21T04:54:04.037Z,485.00
2024-03-21T04:55:04.018Z,480.00
2024-03-21T04:56:04.011Z,478.00
2024-03-21T04:57:04.010Z,477.00
2024-03-21T04:58:04.020Z,478.00
2024-03-21T04:59:04.026Z,478.00
2024-03-21T05:00:04.021Z,479.00
2024-03-21T05:01:04.013Z,479.00
2024-03-21T05:02:04.020Z,479.00
2024-03-21T05:03:04.013Z,477.00
2024-03-21T05:04:04.035Z,476.00
2024-03-21T05:05:04.033Z,475.00
2024-03-21T05:06:04.027Z,478.00
2024-03-21T05:07:04.036Z,477.00
2024-03-21T05:08:04.027Z,477.00
2024-03-21T05:09:04.038Z,476.00
2024-03-21T05:10:04.038Z,476.00
2024-03-21T05:11:04.039Z,479.00
2024-03-21T05:12:04.045Z,476.00
2024-03-21T05:13:04.057Z,472.00
2024-03-21T05:14:04.045Z,470.00
2024-03-21T05:15:04.043Z,466.00
2024-03-21T05:16:04.044Z,464.00
2024-03-21T05:17:04.040Z,466.00
2024-03-21T05:18:04.134Z,467.00
2024-03-21T05:19:04.085Z,467.00
2024-03-21T05:20:04.061Z,468.00
2024-03-21T05:21:04.067Z,468.00
2024-03-21T05:22:04.073Z,466.00
2024-03-21T05:23:04.062Z,467.00
2024-03-21T05:24:04.075Z,465.00
2024-03-21T05:25:04.072Z,462.00
2024-03-21T05:26:04.100Z,461.00
2024-03-21T05:27:04.145Z,460.00
2024-03-21T05:28:04.179Z,462.00
2024-03-21T05:29:04.231Z,467.00
2024-03-21T05:30:04.254Z,471.00
2024-03-21T05:31:04.287Z,470.00
2024-03-21T05:32:04.320Z,469.00
2024-03-21T05:33:04.367Z,466.00
2024-03-21T05:34:04.416Z,464.00
2024-03-21T05:35:04.454Z,467.00
2024-03-21T05:36:04.491Z,469.00
2024-03-21T05:37:04.532Z,471.00
2024-03-21T05:38:04.572Z,471.00
2024-03-21T05:39:04.615Z,470.00
2024-03-21T05:40:04.662Z,472.00
2024-03-21T05:41:04.697Z,475.00
2024-03-21T05:42:04.730Z,475.00
2024-03-21T05:43:04.776Z,475.00
2024-03-21T05:44:04.821Z,472.00
2024-03-21T05:45:04.865Z,474.00
2024-03-21T05:46:04.909Z,473.00
2024-03-21T05:47:04.944Z,473.00
2024-03-21T05:48:04.988Z,474.00
2024-03-21T05:49:05.022Z,477.00
2024-03-21T05:50:05.082Z,481.00
2024-03-21T05:51:05.110Z,479.00
2024-03-21T05:52:05.145Z,475.00
2024-03-21T05:53:05.189Z,472.00
2024-03-21T05:54:05.227Z,472.00
2024-03-21T05:55:05.275Z,473.00
2024-03-21T05:56:05.316Z,476.00
2024-03-21T05:57:05.346Z,480.00
2024-03-21T05:58:05.388Z,480.00
2024-03-21T05:59:05.433Z,478.00
2024-03-21T06:00:05.464Z,479.00
2024-03-21T06:01:05.508Z,478.00
2024-03-21T06:02:05.547Z,479.00
2024-03-21T06:03:05.583Z,477.00
2024-03-21T06:04:05.620Z,477.00
2024-03-21T06:05:05.671Z,479.00
2024-03-21T06:06:05.715Z,481.00
2024-03-21T06:07:05.744Z,481.00
2024-03-21T06:08:05.782Z,480.00
2024-03-21T06:09:05.821Z,480.00
2024-03-21T06:10:05.866Z,476.00
2024-03-21T06:11:05.903Z,474.00
2024-03-21T06:12:05.945Z,473.00
2024-03-21T06:13:05.979Z,473.00
2024-03-21T06:14:06.011Z,471.00
2024-03-21T06:15:06.051Z,470.00
2024-03-21T06:16:06.085Z,471.00
2024-03-21T06:17:06.121Z,473.00
2024-03-21T06:18:06.163Z,473.00
2024-03-21T06:19:06.199Z,473.00
2024-03-21T06:20:06.653Z,475.00
2024-03-21T06:21:06.266Z,475.00
2024-03-21T06:22:06.296Z,476.00
2024-03-21T06:23:06.344Z,480.00
2024-03-21T06:24:06.392Z,481.00
2024-03-21T06:25:06.430Z,482.00
2024-03-21T06:26:06.456Z,482.00
2024-03-21T06:27:06.492Z,483.00
2024-03-21T06:28:06.523Z,483.00
2024-03-21T06:29:06.573Z,487.00
2024-03-21T06:30:06.652Z,493.00
2024-03-21T06:31:06.647Z,503.00
2024-03-21T06:32:06.702Z,507.00
2024-03-21T06:33:06.736Z,516.00
2024-03-21T06:34:06.764Z,524.00
2024-03-21T06:35:07.165Z,534.00
2024-03-21T06:36:06.849Z,543.00
2024-03-21T06:37:06.864Z,597.00
2024-03-21T06:38:06.890Z,626.00
2024-03-21T06:39:06.923Z,651.00
2024-03-21T06:40:07.159Z,668.00
2024-03-21T06:41:07.172Z,657.00
2024-03-21T06:42:07.000Z,665.00
2024-03-21T06:43:07.016Z,662.00
2024-03-21T06:44:07.048Z,671.00
2024-03-21T06:45:07.166Z,701.00
2024-03-21T06:46:07.089Z,727.00
2024-03-21T06:47:07.117Z,741.00
2024-03-21T06:48:07.132Z,759.00
2024-03-21T06:49:07.174Z,767.00
2024-03-21T06:50:07.201Z,765.00
2024-03-21T06:51:07.207Z,768.00
2024-03-21T06:52:07.251Z,767.00
2024-03-21T06:53:07.271Z,758.00
2024-03-21T06:54:07.285Z,746.00
2024-03-21T06:55:07.318Z,745.00
2024-03-21T06:56:07.366Z,759.00
2024-03-21T06:57:07.379Z,752.00
2024-03-21T06:58:07.389Z,743.00
2024-03-21T06:59:07.420Z,758.00
2024-03-21T07:00:07.436Z,774.00
2024-03-21T07:01:07.462Z,773.00
2024-03-21T07:02:07.509Z,695.00
2024-03-21T07:03:07.506Z,702.00
2024-03-21T07:04:07.538Z,707.00
2024-03-21T07:05:07.550Z,704.00
2024-03-21T07:06:07.573Z,723.00
2024-03-21T07:07:07.599Z,721.00
2024-03-21T07:08:07.619Z,704.00
2024-03-21T07:09:07.639Z,696.00
2024-03-21T07:10:07.668Z,695.00
2024-03-21T07:11:07.711Z,695.00
2024-03-21T07:12:07.700Z,689.00
2024-03-21T07:13:07.738Z,682.00
2024-03-21T07:14:07.757Z,677.00
2024-03-21T07:15:08.173Z,673.00
2024-03-21T07:16:07.816Z,670.00
2024-03-21T07:17:07.862Z,672.00
2024-03-21T07:18:07.869Z,682.00
2024-03-21T07:19:07.897Z,830.00
2024-03-21T07:20:07.953Z,845.00
2024-03-21T07:21:07.934Z,853.00
2024-03-21T07:22:07.957Z,858.00
2024-03-21T07:23:08.181Z,856.00
2024-03-21T07:24:08.008Z,852.00
2024-03-21T07:25:08.041Z,844.00
2024-03-21T07:26:08.111Z,841.00
2024-03-21T07:27:08.096Z,839.00
2024-03-21T07:28:08.181Z,809.00
2024-03-21T07:29:08.164Z,763.00
2024-03-21T07:30:08.692Z,783.00
2024-03-21T07:31:08.244Z,771.00
2024-03-21T07:32:08.285Z,754.00
2024-03-21T07:33:08.355Z,655.00
2024-03-21T07:34:08.413Z,638.00
2024-03-21T07:35:08.690Z,696.00
2024-03-21T07:36:08.472Z,708.00
2024-03-21T07:37:08.482Z,714.00
2024-03-21T07:38:08.506Z,713.00
2024-03-21T07:39:08.515Z,708.00
2024-03-21T07:40:08.685Z,710.00
2024-03-21T07:41:08.567Z,707.00
2024-03-21T07:42:08.540Z,704.00
2024-03-21T07:43:08.554Z,705.00
2024-03-21T07:44:08.615Z,700.00
2024-03-21T07:45:08.681Z,699.00
2024-03-21T07:46:08.750Z,692.00
2024-03-21T07:47:08.828Z,684.00
2024-03-21T07:48:08.900Z,678.00
2024-03-21T07:49:08.961Z,671.00
2024-03-21T07:50:09.615Z,666.00
2024-03-21T07:51:09.088Z,662.00
2024-03-21T07:52:09.149Z,731.00
2024-03-21T07:53:09.215Z,652.00
2024-03-21T07:54:09.280Z,649.00
2024-03-21T07:55:09.702Z,679.00
2024-03-21T07:56:09.412Z,710.00
2024-03-21T07:57:09.483Z,684.00
2024-03-21T07:58:09.511Z,669.00
2024-03-21T07:59:09.559Z,662.00
2024-03-21T08:00:09.615Z,659.00
2024-03-21T08:01:11.176Z,657.00
2024-03-21T08:02:09.715Z,672.00
2024-03-21T08:03:09.766Z,667.00
2024-03-21T08:04:09.818Z,648.00
2024-03-21T08:05:09.879Z,649.00
2024-03-21T08:06:09.993Z,651.00
2024-03-21T08:07:10.040Z,649.00
2024-03-21T08:08:10.054Z,651.00
2024-03-21T08:09:10.146Z,668.00
2024-03-21T08:10:10.296Z,673.00
2024-03-21T08:11:10.353Z,649.00
2024-03-21T08:12:10.294Z,642.00
2024-03-21T08:13:10.347Z,648.00
2024-03-21T08:14:10.415Z,651.00
2024-03-21T08:15:10.491Z,645.00
2024-03-21T08:16:10.634Z,652.00
2024-03-21T08:17:10.710Z,649.00
2024-03-21T08:18:10.697Z,642.00
2024-03-21T08:19:10.751Z,679.00
2024-03-21T08:20:10.811Z,684.00
2024-03-21T08:21:12.878Z,669.00
2024-03-21T08:22:10.884Z,666.00
2024-03-21T08:23:10.903Z,667.00
2024-03-21T08:24:10.897Z,667.00
2024-03-21T08:25:11.709Z,668.00
2024-03-21T08:26:10.911Z,713.00
2024-03-21T08:27:10.920Z,733.00
2024-03-21T08:28:10.903Z,777.00
2024-03-21T08:29:10.909Z,793.00
2024-03-21T08:30:11.025Z,892.00
2024-03-21T08:31:10.911Z,910.00
2024-03-21T08:32:10.949Z,905.00
2024-03-21T08:33:10.905Z,917.00
2024-03-21T08:34:10.896Z,932.00
2024-03-21T08:35:11.223Z,937.00
2024-03-21T08:36:10.906Z,968.00
2024-03-21T08:37:10.914Z,1006.00
2024-03-21T08:38:10.915Z,1060.00
2024-03-21T08:39:10.914Z,1068.00
2024-03-21T08:40:11.209Z,1072.00
2024-03-21T08:41:10.922Z,1079.00
2024-03-21T08:42:10.930Z,1077.00
2024-03-21T08:43:10.913Z,1080.00
2024-03-21T08:44:11.222Z,1095.00
2024-03-21T08:45:10.912Z,1106.00
2024-03-21T08:46:10.914Z,1106.00
2024-03-21T08:47:10.915Z,1126.00
2024-03-21T08:48:10.915Z,1133.00
2024-03-21T08:49:11.216Z,1141.00
2024-03-21T08:50:10.932Z,1144.00
2024-03-21T08:51:10.931Z,1145.00
2024-03-21T08:52:10.922Z,1158.00
2024-03-21T08:53:10.940Z,1158.00
2024-03-21T08:54:10.928Z,1169.00
2024-03-21T08:55:10.925Z,1186.00
2024-03-21T08:56:10.919Z,1206.00
2024-03-21T08:57:10.931Z,1209.00
2024-03-21T08:58:10.979Z,1214.00
2024-03-21T08:59:11.039Z,1215.00
2024-03-21T09:00:11.103Z,1228.00
2024-03-21T09:01:11.171Z,1244.00
2024-03-21T09:02:11.280Z,1250.00
2024-03-21T09:03:11.312Z,1247.00
2024-03-21T09:04:11.365Z,1244.00
2024-03-21T09:05:11.505Z,1246.00
2024-03-21T09:06:11.567Z,1253.00
2024-03-21T09:07:11.573Z,1254.00
2024-03-21T09:08:11.634Z,1271.00
2024-03-21T09:09:11.704Z,1274.00
2024-03-21T09:10:11.767Z,1273.00
2024-03-21T09:11:11.869Z,1284.00
2024-03-21T09:12:11.895Z,1292.00
2024-03-21T09:13:11.962Z,1296.00
2024-03-21T09:14:12.041Z,1297.00
2024-03-21T09:15:12.172Z,1301.00
2024-03-21T09:16:12.206Z,1320.00
2024-03-21T09:17:12.228Z,1343.00
2024-03-21T09:18:12.284Z,1343.00
2024-03-21T09:19:12.349Z,1337.00
2024-03-21T09:20:12.774Z,1310.00
2024-03-21T09:21:12.478Z,1323.00
2024-03-21T09:22:12.548Z,1299.00
2024-03-21T09:23:12.718Z,1172.00
2024-03-21T09:24:12.707Z,1096.00
2024-03-21T09:25:13.282Z,1022.00
2024-03-21T09:26:12.786Z,1029.00
2024-03-21T09:27:15.432Z,1047.00
2024-03-21T09:28:13.780Z,879.00
2024-03-21T09:29:12.782Z,906.00
2024-03-21T09:30:12.794Z,937.00
2024-03-21T09:31:12.800Z,1092.00
2024-03-21T09:32:12.792Z,966.00
2024-03-21T09:33:12.791Z,972.00
2024-03-21T09:34:12.835Z,966.00
2024-03-21T09:35:12.802Z,1018.00
2024-03-21T09:36:12.798Z,977.00
2024-03-21T09:37:12.914Z,974.00
2024-03-21T09:38:12.798Z,1061.00
2024-03-21T09:39:12.821Z,1097.00
2024-03-21T09:40:12.806Z,1088.00
2024-03-21T09:41:12.806Z,1082.00
2024-03-21T09:42:12.802Z,1091.00
2024-03-21T09:43:12.817Z,1108.00
2024-03-21T09:44:12.810Z,1104.00
2024-03-21T09:45:12.887Z,1101.00
2024-03-21T09:46:12.954Z,1124.00
2024-03-21T09:47:13.044Z,1155.00
2024-03-21T09:48:13.076Z,1190.00
2024-03-21T09:49:13.229Z,1188.00
2024-03-21T09:50:13.218Z,1185.00
2024-03-21T09:51:13.322Z,1193.00
2024-03-21T09:52:13.326Z,1211.00
2024-03-21T09:53:13.383Z,1190.00
2024-03-21T09:54:13.439Z,1193.00
2024-03-21T09:55:13.486Z,1202.00
2024-03-21T09:56:13.566Z,1213.00
2024-03-21T09:57:13.580Z,1223.00
2024-03-21T09:58:13.651Z,1223.00
2024-03-21T09:59:13.771Z,1220.00
2024-03-21T10:00:13.756Z,1228.00
2024-03-21T10:01:13.769Z,1286.00
2024-03-21T10:02:13.808Z,1271.00
2024-03-21T10:03:13.856Z,1246.00
2024-03-21T10:04:13.940Z,1247.00
2024-03-21T10:05:13.951Z,1263.00
2024-03-21T10:06:14.068Z,1262.00
2024-03-21T10:07:14.032Z,1255.00
2024-03-21T10:08:14.066Z,1253.00
2024-03-21T10:09:14.102Z,1253.00
2024-03-21T10:10:14.163Z,1251.00
2024-03-21T10:11:14.286Z,1257.00
2024-03-21T10:12:14.204Z,1253.00
2024-03-21T10:13:14.279Z,1249.00
2024-03-21T10:14:14.386Z,1239.00
2024-03-21T10:15:14.857Z,1233.00
2024-03-21T10:16:14.352Z,1238.00
2024-03-21T10:17:15.664Z,1249.00
2024-03-21T10:18:14.414Z,1263.00
2024-03-21T10:19:14.447Z,1279.00
2024-03-21T10:20:14.480Z,1279.00
2024-03-21T10:21:14.499Z,1281.00
2024-03-21T10:22:14.530Z,1282.00
2024-03-21T10:23:14.550Z,1225.00
2024-03-21T10:24:14.571Z,1221.00
2024-03-21T10:25:14.765Z,1216.00
2024-03-21T10:26:14.630Z,1208.00
2024-03-21T10:27:14.654Z,1211.00
2024-03-21T10:28:14.681Z,1207.00
2024-03-21T10:29:14.728Z,1213.00
2024-03-21T10:30:14.859Z,1218.00
2024-03-21T10:31:14.745Z,1217.00
2024-03-21T10:32:14.788Z,1214.00
2024-03-21T10:33:14.801Z,1219.00
2024-03-21T10:34:14.824Z,1250.00
2024-03-21T10:35:19.193Z,1254.00
2024-03-21T10:36:15.869Z,1277.00
2024-03-21T10:37:14.866Z,1282.00
2024-03-21T10:38:14.866Z,1297.00
2024-03-21T10:39:14.872Z,1305.00
2024-03-21T10:40:14.869Z,1303.00
2024-03-21T10:41:14.869Z,1317.00
2024-03-21T10:42:14.879Z,1332.00
2024-03-21T10:43:14.877Z,1340.00
2024-03-21T10:44:14.875Z,1349.00
2024-03-21T10:45:14.874Z,1346.00
2024-03-21T10:46:14.920Z,1309.00
2024-03-21T10:47:14.876Z,1311.00
2024-03-21T10:48:14.876Z,1318.00
2024-03-21T10:49:14.880Z,1333.00
2024-03-21T10:50:15.285Z,1321.00
2024-03-21T10:51:14.893Z,1318.00
2024-03-21T10:52:14.897Z,1317.00
2024-03-21T10:53:14.885Z,1271.00
2024-03-21T10:54:14.897Z,1279.00
2024-03-21T10:55:14.881Z,1270.00
2024-03-21T10:56:14.880Z,1294.00
2024-03-21T10:57:14.881Z,1322.00
2024-03-21T10:58:14.889Z,1343.00
2024-03-21T10:59:14.887Z,1361.00
2024-03-21T11:00:14.887Z,1388.00
2024-03-21T11:01:14.898Z,1319.00
2024-03-21T11:02:14.926Z,1345.00
2024-03-21T11:03:14.919Z,1364.00
2024-03-21T11:04:14.891Z,1459.00
2024-03-21T11:05:14.909Z,1431.00
2024-03-21T11:06:16.330Z,1430.00
2024-03-21T11:07:14.918Z,1431.00
2024-03-21T11:08:14.942Z,1432.00
2024-03-21T11:09:14.937Z,1449.00
2024-03-21T11:10:15.007Z,1465.00
2024-03-21T11:11:14.979Z,1464.00
2024-03-21T11:12:15.091Z,1476.00
2024-03-21T11:13:15.001Z,1483.00
2024-03-21T11:14:15.056Z,1482.00
2024-03-21T11:15:15.036Z,1465.00
2024-03-21T11:16:15.043Z,1457.00
2024-03-21T11:17:15.102Z,1468.00
2024-03-21T11:18:15.115Z,1482.00
2024-03-21T11:19:15.134Z,1522.00
2024-03-21T11:20:15.482Z,1484.00
2024-03-21T11:21:15.189Z,1303.00
2024-03-21T11:22:15.324Z,1341.00
2024-03-21T11:23:15.191Z,1368.00
2024-03-21T11:24:15.231Z,1042.00
2024-03-21T11:25:15.320Z,1029.00
2024-03-21T11:26:15.267Z,791.00
2024-03-21T11:27:15.322Z,799.00
2024-03-21T11:28:15.383Z,803.00
2024-03-21T11:29:19.326Z,768.00
2024-03-21T11:30:16.377Z,758.00
2024-03-21T11:31:15.447Z,861.00
2024-03-21T11:32:15.459Z,925.00
2024-03-21T11:33:16.250Z,914.00
2024-03-21T11:34:15.467Z,948.00
2024-03-21T11:35:15.472Z,960.00
2024-03-21T11:36:15.479Z,955.00
2024-03-21T11:37:15.819Z,947.00
2024-03-21T11:38:15.467Z,950.00
2024-03-21T11:39:15.480Z,1045.00
2024-03-21T11:40:15.483Z,1060.00
2024-03-21T11:41:15.475Z,1057.00
2024-03-21T11:42:15.507Z,1056.00
2024-03-21T11:43:15.473Z,1007.00
2024-03-21T11:44:15.471Z,1032.00
2024-03-21T11:45:15.493Z,1027.00
2024-03-21T11:46:15.515Z,1017.00
2024-03-21T11:47:15.511Z,1039.00
2024-03-21T11:48:16.664Z,1048.00
2024-03-21T11:49:15.495Z,1057.00
2024-03-21T11:50:15.493Z,1061.00
2024-03-21T11:51:15.485Z,1065.00
2024-03-21T11:52:15.504Z,1067.00
2024-03-21T11:53:15.528Z,1072.00
2024-03-21T11:54:15.547Z,1076.00
2024-03-21T11:55:15.580Z,977.00
2024-03-21T11:56:15.595Z,1007.00
2024-03-21T11:57:15.624Z,1070.00
2024-03-21T11:58:15.646Z,1063.00
2024-03-21T11:59:15.656Z,1042.00
2024-03-21T12:00:15.696Z,1065.00
2024-03-21T12:01:15.720Z,1095.00
2024-03-21T12:02:15.732Z,1119.00
2024-03-21T12:03:15.782Z,1123.00
2024-03-21T12:04:15.767Z,1118.00
2024-03-21T12:05:15.804Z,1099.00
2024-03-21T12:06:15.893Z,1084.00
2024-03-21T12:07:15.799Z,1083.00
2024-03-21T12:08:15.889Z,1083.00
2024-03-21T12:09:15.854Z,1085.00
2024-03-21T12:10:16.336Z,1090.00
2024-03-21T12:11:15.941Z,1077.00
2024-03-21T12:12:15.918Z,1084.00
2024-03-21T12:13:16.322Z,1065.00
2024-03-21T12:14:15.990Z,1038.00
2024-03-21T12:15:15.915Z,1057.00
2024-03-21T12:16:15.932Z,1053.00
2024-03-21T12:17:15.964Z,1032.00
2024-03-21T12:18:16.350Z,1055.00
2024-03-21T12:19:15.998Z,1063.00
2024-03-21T12:20:16.013Z,1055.00
2024-03-21T12:21:16.036Z,1059.00
2024-03-21T12:22:16.163Z,1063.00
2024-03-21T12:23:16.344Z,1056.00